Schedule Details


Flight Number: CTN4438
Departure: Kastela (LDSP) at 07:55
Arrival: Munich (EDDM) at 09:35
Route: ZDA L868 GISER L862 SABAD DCT NIPEL DCT REDBU Q112 NAPSA

Weather Information
LDSP 242200Z AUTO 06006KT 020V090 CAVOK 26/14 Q1017
EDDM 242150Z 06005KT CAVOK 20/15 Q1021 NOSIG
Schedule Frequency

Route Map